Time;durP1;ratioP1;P1;durP2;ratioP2;P2;SDS_P1;SDS_P2;PMS_P1;PMS_P2;Temp;Humidity;BMP_temperature;BMP_pressure;BME280_temperature;BME280_humidity;BME280_pressure;Samples;Min_cycle;Max_cycle;Signal;HPM_P1;HPM_P2
2022/01/29 00:02:11;;;;;;;1999.90;999.90;;;;;;;2.19;81.26;162980.66;5014174;28;20485;-67
2022/01/29 00:04:37;;;;;;;1999.90;999.90;;;;;;;2.05;81.97;162945.06;5018967;28;20064;-65
2022/01/29 00:07:04;;;;;;;1999.90;999.90;;;;;;;1.91;82.36;162906.78;5023140;28;20107;-65
2022/01/29 00:09:30;;;;;;;1999.90;999.90;;;;;;;2.17;81.95;162976.56;5018339;28;20049;-65
2022/01/29 00:11:57;;;;;;;1999.90;999.90;;;;;;;2.10;81.69;162957.44;5012928;28;20096;-65
2022/01/29 00:14:23;;;;;;;1999.90;999.90;;;;;;;1.73;82.56;162858.88;5026057;28;20068;-66
2022/01/29 00:16:50;;;;;;;1999.90;999.90;;;;;;;1.67;83.40;162842.44;5016906;28;20435;-66
2022/01/29 00:19:47;;;;;;;1999.90;999.90;;;;;;;1.55;83.29;162810.94;5015606;28;20435;-66
2022/01/29 00:22:13;;;;;;;1999.90;999.90;;;;;;;1.19;85.10;162715.13;5020745;28;20060;-66
2022/01/29 00:24:40;;;;;;;1999.90;999.90;;;;;;;1.29;84.87;162741.13;5023537;28;20057;-66
2022/01/29 00:27:10;;;;;;;1999.90;999.90;;;;;;;1.23;84.90;162726.06;5023299;28;20055;-66
2022/01/29 00:29:39;;;;;;;1999.90;999.90;;;;;;;0.97;85.47;162656.28;5014823;28;20435;-66
2022/01/29 00:32:08;;;;;;;1999.90;999.90;;;;;;;1.20;85.30;162717.88;5020038;28;20076;-66
2022/01/29 00:34:35;;;;;;;1999.90;999.90;;;;;;;1.14;84.82;162702.81;5019286;28;20054;-66
2022/01/29 00:37:02;;;;;;;1999.90;999.90;;;;;;;1.48;83.87;162791.78;5026972;28;20044;-66
2022/01/29 00:39:29;;;;;;;1999.90;999.90;;;;;;;1.67;83.25;162843.78;5022883;28;20042;-65
2022/01/29 00:41:56;;;;;;;1999.90;999.90;;;;;;;1.50;83.21;162797.25;5021546;28;20073;-66
2022/01/29 00:44:41;;;;;;;1999.90;999.90;;;;;;;1.35;84.65;162757.56;5023185;28;20347;-66
2022/01/29 00:47:08;;;;;;;1999.90;999.90;;;;;;;1.18;84.27;162712.41;5014666;28;20052;-66
2022/01/29 00:49:35;;;;;;;1999.90;999.90;;;;;;;0.94;85.76;162649.47;5016723;28;20346;-66
2022/01/29 00:52:02;;;;;;;1999.90;999.90;;;;;;;1.05;86.38;162679.53;5019889;28;20045;-66
2022/01/29 00:54:29;;;;;;;1999.90;999.90;;;;;;;0.98;86.85;162660.44;5019204;28;20157;-66
2022/01/29 00:56:56;;;;;;;1999.90;999.90;;;;;;;0.99;86.81;162663.13;5017334;28;20060;-66
2022/01/29 00:59:22;;;;;;;1999.90;999.90;;;;;;;0.67;87.94;162578.34;5022219;28;20053;-66
2022/01/29 01:01:49;;;;;;;1999.90;999.90;;;;;;;0.19;90.71;162449.75;5017690;28;20054;-66
2022/01/29 01:04:16;;;;;;;1999.90;999.90;;;;;;;0.46;89.88;162522.28;5016744;28;20058;-66
2022/01/29 01:06:44;;;;;;;1999.90;999.90;;;;;;;0.44;90.47;162516.78;5014595;28;20079;-66
2022/01/29 01:09:10;;;;;;;1999.90;999.90;;;;;;;0.50;91.36;162531.81;5017012;28;20060;-66
2022/01/29 01:11:37;;;;;;;1999.90;999.90;;;;;;;1.03;89.34;162674.09;5021967;28;20049;-66
2022/01/29 01:14:04;;;;;;;1999.90;999.90;;;;;;;0.89;89.43;162635.78;5021202;28;20415;-66
2022/01/29 01:16:31;;;;;;;1999.90;999.90;;;;;;;0.82;90.39;162616.59;5012875;28;20103;-66
2022/01/29 01:18:58;;;;;;;1999.90;999.90;;;;;;;0.82;90.48;162618.00;5020569;28;20053;-66
2022/01/29 01:21:24;;;;;;;1999.90;999.90;;;;;;;0.82;90.34;162618.00;5017475;28;20057;-66
2022/01/29 01:23:51;;;;;;;1999.90;999.90;;;;;;;1.11;89.32;162693.25;5024223;28;20340;-66
2022/01/29 01:26:18;;;;;;;1999.90;999.90;;;;;;;0.94;90.26;162649.47;5020387;28;20046;-66
2022/01/29 01:28:45;;;;;;;1999.90;999.90;;;;;;;0.68;90.43;162581.03;5020147;28;20045;-66
2022/01/29 01:31:12;;;;;;;1999.90;999.90;;;;;;;0.78;90.52;162605.69;5020720;28;20055;-66
2022/01/29 01:33:39;;;;;;;1999.90;999.90;;;;;;;0.76;90.56;162600.19;5022121;28;20057;-66
2022/01/29 01:36:07;;;;;;;1999.90;999.90;;;;;;;0.98;89.55;162660.44;5019228;28;20464;-66
2022/01/29 01:41:53;;;;;;;1999.90;999.90;;;;;;;1.08;88.37;162686.41;5024812;28;20064;-66
2022/01/29 01:44:20;;;;;;;1999.90;999.90;;;;;;;1.01;88.08;162667.25;5022131;28;20049;-67
2022/01/29 01:46:47;;;;;;;1999.90;999.90;;;;;;;1.07;87.46;162683.66;5022245;28;20080;-66
2022/01/29 01:49:15;;;;;;;1999.90;999.90;;;;;;;0.99;87.17;162663.13;5012130;28;20050;-66
2022/01/29 01:51:43;;;;;;;1999.90;999.90;;;;;;;1.17;86.83;162711.03;5020544;28;20053;-66
2022/01/29 01:54:10;;;;;;;1999.90;999.90;;;;;;;1.22;85.73;162723.31;5023670;28;20111;-66
2022/01/29 01:56:36;;;;;;;1999.90;999.90;;;;;;;1.22;85.99;162724.72;5026024;28;20079;-66
2022/01/29 01:59:03;;;;;;;1999.90;999.90;;;;;;;1.27;85.42;162735.69;5022286;28;20049;-66
2022/01/29 02:01:29;;;;;;;1999.90;999.90;;;;;;;1.39;84.73;162769.88;5016596;28;20050;-66
2022/01/29 02:03:56;;;;;;;1999.90;999.90;;;;;;;1.28;85.02;162739.78;5018553;28;20127;-66
2022/01/29 02:06:22;;;;;;;1999.90;999.90;;;;;;;1.34;84.54;162756.22;5024960;28;20053;-66
2022/01/29 02:08:58;;;;;;;1999.90;999.90;;;;;;;1.33;84.83;162753.44;5024735;28;20050;-66
2022/01/29 02:11:24;;;;;;;1999.90;999.90;;;;;;;1.43;84.18;162778.06;5029305;28;20057;-67
2022/01/29 02:13:51;;;;;;;1999.90;999.90;;;;;;;1.46;84.07;162786.28;5024844;28;20060;-67
2022/01/29 02:16:18;;;;;;;1999.90;999.90;;;;;;;0.80;86.25;162611.16;5024758;28;20118;-67
2022/01/29 02:18:45;;;;;;;1999.90;999.90;;;;;;;1.15;85.99;162705.56;5029089;28;20050;-66
2022/01/29 02:21:11;;;;;;;1999.90;999.90;;;;;;;1.29;85.25;162742.50;5027154;28;20095;-67
2022/01/29 02:23:38;;;;;;;1999.90;999.90;;;;;;;1.45;84.12;162783.59;5023703;28;20058;-67
2022/01/29 02:26:04;;;;;;;1999.90;999.90;;;;;;;1.52;84.13;162804.09;5013267;28;20118;-67
2022/01/29 02:28:31;;;;;;;1999.90;999.90;;;;;;;1.07;85.14;162683.66;5016391;28;20073;-67
2022/01/29 02:31:02;;;;;;;1999.90;999.90;;;;;;;1.05;85.99;162679.53;5021455;28;20069;-67
2022/01/29 02:33:31;;;;;;;1999.90;999.90;;;;;;;0.89;87.01;162635.78;5027238;28;20045;-66
2022/01/29 02:36:35;;;;;;;1999.90;999.90;;;;;;;1.17;85.63;162709.66;5017988;28;20115;-67
2022/01/29 02:39:12;;;;;;;1999.90;999.90;;;;;;;1.43;85.04;162778.06;5022569;28;20355;-66
2022/01/29 02:41:44;;;;;;;1999.90;999.90;;;;;;;1.47;84.07;162790.38;5019139;28;20060;-67
2022/01/29 02:44:15;;;;;;;;;;;;;;;1.32;84.51;162749.34;5019872;28;20048;-67
2022/01/29 02:46:49;;;;;;;1999.90;999.90;;;;;;;1.32;85.19;162750.69;5025549;28;20384;-67
2022/01/29 02:49:18;;;;;;;1999.90;999.90;;;;;;;1.11;85.77;162694.59;5018130;28;20349;-67
2022/01/29 02:51:50;;;;;;;1999.90;999.90;;;;;;;1.29;85.43;162742.50;5010068;28;20092;-67
2022/01/29 02:54:18;;;;;;;1999.90;999.90;;;;;;;1.08;85.78;162685.06;5022743;28;20045;-67
2022/01/29 02:56:45;;;;;;;1999.90;999.90;;;;;;;0.98;86.69;162660.44;5022107;28;20075;-67
2022/01/29 02:59:11;;;;;;;1999.90;999.90;;;;;;;0.57;87.70;162549.63;5024046;28;20088;-66
2022/01/29 03:01:38;;;;;;;1999.90;999.90;;;;;;;0.49;88.02;162530.47;5027514;28;20063;-67
2022/01/29 03:04:06;;;;;;;1999.90;999.90;;;;;;;0.22;89.34;162457.97;5021346;28;20057;-67
2022/01/29 03:06:33;;;;;;;1999.90;999.90;;;;;;;0.52;89.16;162537.28;5011194;28;20434;-67
2022/01/29 03:09:00;;;;;;;1999.90;999.90;;;;;;;0.66;88.38;162575.59;5023835;28;20049;-67
2022/01/29 03:11:27;;;;;;;1999.90;999.90;;;;;;;0.86;87.61;162627.56;5016849;28;20108;-67
2022/01/29 03:13:53;;;;;;;1999.90;999.90;;;;;;;0.64;88.24;162570.13;5024138;28;20053;-66
2022/01/29 03:16:20;;;;;;;1999.90;999.90;;;;;;;0.79;87.85;162608.41;5021373;28;20131;-67
2022/01/29 03:18:47;;;;;;;1999.90;999.90;;;;;;;0.97;87.52;162657.69;5021404;28;20058;-67
2022/01/29 03:21:13;;;;;;;1999.90;999.90;;;;;;;1.22;86.55;162723.31;5051307;28;20058;-67
2022/01/29 03:23:41;;;;;;;1999.90;999.90;;;;;;;1.45;85.66;162784.94;5023646;28;20107;-68
2022/01/29 03:26:08;;;;;;;1999.90;999.90;;;;;;;1.63;85.47;162832.81;5022780;28;20049;-68
2022/01/29 03:28:34;;;;;;;1999.90;999.90;;;;;;;1.73;85.00;162860.22;5021356;28;20075;-68
2022/01/29 03:31:01;;;;;;;1999.90;999.90;;;;;;;1.51;85.12;162801.34;5016800;28;20049;-68
2022/01/29 03:33:28;;;;;;;1999.90;999.90;;;;;;;1.27;86.60;162735.69;5020175;28;20086;-68
2022/01/29 03:35:54;;;;;;;1999.90;999.90;;;;;;;0.69;88.79;162582.44;5019732;28;20045;-68
2022/01/29 03:38:21;;;;;;;1999.90;999.90;;;;;;;0.81;89.42;162613.91;5012747;28;20122;-68
2022/01/29 03:40:49;;;;;;;1999.90;999.90;;;;;;;0.60;89.39;162559.19;5023025;28;20198;-68
2022/01/29 03:43:25;;;;;;;1999.90;999.90;;;;;;;0.56;90.06;162548.22;5020457;28;20496;-68
2022/01/29 03:45:51;;;;;;;1999.90;999.90;;;;;;;0.78;89.08;162605.69;5010994;28;20107;-68
2022/01/29 03:48:18;;;;;;;1999.90;999.90;;;;;;;0.88;88.42;162634.41;5017262;28;20053;-68
2022/01/29 03:50:44;;;;;;;1999.90;999.90;;;;;;;0.76;88.31;162600.19;5016411;28;20060;-68
2022/01/29 03:53:11;;;;;;;1999.90;999.90;;;;;;;0.75;88.32;162597.50;5027280;28;21349;-68
2022/01/29 03:55:37;;;;;;;1999.90;999.90;;;;;;;0.88;87.53;162633.06;5025240;28;20068;-68
2022/01/29 03:58:04;;;;;;;1999.90;999.90;;;;;;;0.75;87.51;162598.84;5017601;28;20079;-68
2022/01/29 04:00:30;;;;;;;1999.90;999.90;;;;;;;0.82;86.40;162616.59;5016937;28;20052;-68
2022/01/29 04:02:57;;;;;;;1999.90;999.90;;;;;;;0.83;86.23;162619.34;5025336;28;20136;-68
2022/01/29 04:05:26;;;;;;;1999.90;999.90;;;;;;;0.79;86.95;162608.41;5017006;28;20048;-68
2022/01/29 04:07:53;;;;;;;1999.90;999.90;;;;;;;0.35;87.34;162493.53;5012533;28;20058;-68
2022/01/29 04:10:20;;;;;;;1999.90;999.90;;;;;;;0.17;87.79;162445.66;5020626;28;20398;-68
2022/01/29 04:12:51;;;;;;;1999.90;999.90;;;;;;;0.25;88.21;162466.16;5022071;28;20128;-67
2022/01/29 04:15:17;;;;;;;1999.90;999.90;;;;;;;0.38;87.05;162499.03;5023429;28;20699;-68
2022/01/29 04:17:44;;;;;;;1999.90;999.90;;;;;;;0.40;87.18;162505.81;5025366;28;20053;-68
2022/01/29 04:20:11;;;;;;;1999.90;999.90;;;;;;;0.60;86.41;162559.19;5019678;28;20045;-68
2022/01/29 04:22:37;;;;;;;1999.90;999.90;;;;;;;0.80;85.43;162611.16;5014206;28;20080;-68
2022/01/29 04:25:04;;;;;;;1999.90;999.90;;;;;;;0.50;85.98;162531.81;5002868;28;20115;-68
2022/01/29 04:27:42;;;;;;;1999.90;999.90;;;;;;;0.34;86.14;162490.81;4998394;28;20273;-68
2022/01/29 04:30:23;;;;;;;1999.90;999.90;;;;;;;0.15;87.07;162440.22;4995077;28;20046;-68
2022/01/29 04:35:20;;;;;;;1999.90;999.90;;;;;;;0.12;87.10;162430.63;4995997;28;20130;-68
2022/01/29 04:37:49;;;;;;;1999.90;999.90;;;;;;;-0.06;87.90;162382.78;4995360;28;20058;-68
2022/01/29 04:40:17;;;;;;;1999.90;999.90;;;;;;;-0.33;88.68;162310.34;5007063;28;20057;-68
2022/01/29 04:42:43;;;;;;;1999.90;999.90;;;;;;;-0.03;87.31;162390.97;4999907;28;20042;-68
2022/01/29 04:45:10;;;;;;;1999.90;999.90;;;;;;;0.06;86.29;162414.22;5000963;28;20382;-68
2022/01/29 04:47:36;;;;;;;1999.90;999.90;;;;;;;-0.12;86.33;162366.38;4997930;28;20112;-68
2022/01/29 04:50:04;;;;;;;1999.90;999.90;;;;;;;-0.17;86.46;162352.72;5002762;28;20062;-68
2022/01/29 04:52:31;;;;;;;1999.90;999.90;;;;;;;-0.19;86.47;162349.97;5004204;28;20045;-68
2022/01/29 04:54:58;;;;;;;1999.90;999.90;;;;;;;-0.36;86.78;162304.88;5001095;28;20054;-68
2022/01/29 04:57:24;;;;;;;1999.90;999.90;;;;;;;-0.28;87.17;162324.00;5007003;28;20072;-68
2022/01/29 04:59:51;;;;;;;1999.90;999.90;;;;;;;0.19;85.66;162449.75;4999791;28;20057;-68
2022/01/29 05:02:17;;;;;;;1999.90;999.90;;;;;;;0.05;85.45;162412.88;4996950;28;20046;-68
2022/01/29 05:04:44;;;;;;;1999.90;999.90;;;;;;;0.43;84.38;162512.66;5003918;28;20050;-68
2022/01/29 05:07:10;;;;;;;1999.90;999.90;;;;;;;0.50;83.73;162531.81;5002716;28;20045;-68
2022/01/29 05:09:37;;;;;;;1999.90;999.90;;;;;;;0.91;82.84;162639.88;4997964;28;20046;-67
2022/01/29 05:12:04;;;;;;;1999.90;999.90;;;;;;;0.96;81.95;162654.94;5001921;28;20443;-68
2022/01/29 05:14:40;;;;;;;1999.90;999.90;;;;;;;0.95;81.95;162652.19;5004161;28;20451;-68
2022/01/29 05:28:08;;;;;;;1999.90;999.90;;;;;;;0.76;82.59;162600.19;5006946;28;20100;-68
2022/01/29 05:30:34;;;;;;;1999.90;999.90;;;;;;;0.74;82.79;162596.09;4999159;28;20058;-68
2022/01/29 05:33:00;;;;;;;1999.90;999.90;;;;;;;0.30;84.31;162479.88;5005375;28;20046;-68
2022/01/29 05:35:27;;;;;;;1999.90;999.90;;;;;;;0.53;83.47;162540.03;5007763;28;20435;-68
2022/01/29 05:37:55;;;;;;;1999.90;999.90;;;;;;;0.34;84.34;162489.41;5008042;28;20131;-68
2022/01/29 05:40:22;;;;;;;1999.90;999.90;;;;;;;0.14;84.78;162436.13;4999111;28;20097;-68
2022/01/29 05:42:48;;;;;;;1999.90;999.90;;;;;;;0.40;84.31;162504.47;5008280;28;20184;-68
2022/01/29 05:45:15;;;;;;;1999.90;999.90;;;;;;;0.20;84.58;162452.53;5005592;28;20045;-68
2022/01/29 05:47:41;;;;;;;1999.90;999.90;;;;;;;-0.12;85.77;162367.78;5003195;28;20407;-68
2022/01/29 05:50:08;;;;;;;1999.90;999.90;;;;;;;-0.09;85.51;162374.56;4998953;28;20053;-68
2022/01/29 05:52:35;;;;;;;1999.90;999.90;;;;;;;0.16;85.44;162441.56;5007481;28;20058;-68
2022/01/29 05:55:04;;;;;;;1999.90;999.90;;;;;;;0.33;83.91;162486.72;5002596;28;20410;-68
2022/01/29 05:57:30;;;;;;;1999.90;999.90;;;;;;;0.50;83.18;162531.81;5008459;28;20049;-68
2022/01/29 05:59:56;;;;;;;1999.90;999.90;;;;;;;0.29;83.58;162477.13;5006661;28;20062;-68
2022/01/29 06:02:23;;;;;;;1999.90;999.90;;;;;;;0.46;83.18;162520.88;5004097;28;20053;-68
2022/01/29 06:04:50;;;;;;;1999.90;999.90;;;;;;;0.34;83.24;162490.81;5001422;28;20058;-68
2022/01/29 06:07:16;;;;;;;1999.90;999.90;;;;;;;0.34;82.67;162490.81;4994199;28;20093;-68
2022/01/29 06:09:45;;;;;;;1999.90;999.90;;;;;;;0.40;82.98;162505.81;4995814;28;20053;-68
2022/01/29 06:12:11;;;;;;;1999.90;999.90;;;;;;;0.56;82.42;162548.22;5001850;28;20048;-68
2022/01/29 06:14:38;;;;;;;1999.90;999.90;;;;;;;0.27;82.60;162471.66;4998014;28;20051;-68
2022/01/29 06:17:04;;;;;;;1999.90;999.90;;;;;;;0.51;82.58;162534.59;5003721;28;20064;-68
2022/01/29 06:19:31;;;;;;;1999.90;999.90;;;;;;;0.20;82.80;162452.53;4997299;28;20054;-68
2022/01/29 06:21:57;;;;;;;1999.90;999.90;;;;;;;0.04;82.71;162408.78;5006195;28;20050;-68
2022/01/29 06:24:24;;;;;;;1999.90;999.90;;;;;;;0.52;82.13;162537.28;5018997;28;20114;-68
2022/01/29 06:26:50;;;;;;;1999.90;999.90;;;;;;;0.34;82.08;162490.81;5021918;28;20099;-68
2022/01/29 06:29:16;;;;;;;1999.90;999.90;;;;;;;0.03;82.94;162406.00;5028347;28;20508;-68
2022/01/29 06:31:43;;;;;;;1999.90;999.90;;;;;;;0.04;83.51;162408.78;5016322;28;20049;-68
2022/01/29 06:34:10;;;;;;;1999.90;999.90;;;;;;;-0.01;82.98;162396.47;5021596;28;20477;-68
2022/01/29 06:36:36;;;;;;;1999.90;999.90;;;;;;;0.04;82.86;162410.13;5026459;28;20053;-68
2022/01/29 06:39:03;;;;;;;1999.90;999.90;;;;;;;-0.20;83.52;162345.88;5015744;28;20072;-68
2022/01/29 06:41:29;;;;;;;1999.90;999.90;;;;;;;0.06;83.84;162414.22;5016105;28;20049;-68
2022/01/29 06:43:55;;;;;;;1999.90;999.90;;;;;;;0.45;81.99;162518.16;5024045;28;20045;-68
2022/01/29 06:46:22;;;;;;;1999.90;999.90;;;;;;;0.28;82.24;162474.41;5020551;28;20057;-68
2022/01/29 06:48:49;;;;;;;1999.90;999.90;;;;;;;0.44;82.23;162515.41;5023213;28;20132;-68
2022/01/29 06:51:18;;;;;;;1999.90;999.90;;;;;;;0.34;81.80;162489.41;5024930;28;20413;-68
2022/01/29 06:53:45;;;;;;;1999.90;999.90;;;;;;;0.43;82.05;162512.66;5018716;28;20157;-68
2022/01/29 06:56:11;;;;;;;1999.90;999.90;;;;;;;0.54;81.38;162542.78;5018832;28;20062;-68
2022/01/29 06:58:38;;;;;;;1999.90;999.90;;;;;;;0.29;81.74;162477.13;5012939;28;20041;-68
2022/01/29 07:01:24;;;;;;;1999.90;999.90;;;;;;;0.35;82.34;162492.16;5028061;28;20076;-68
2022/01/29 07:03:51;;;;;;;1999.90;999.90;;;;;;;0.45;81.78;162518.16;5023277;28;20083;-68
2022/01/29 07:06:17;;;;;;;1999.90;999.90;;;;;;;0.58;81.74;162553.72;5021971;28;20100;-68
2022/01/29 07:08:44;;;;;;;1999.90;999.90;;;;;;;0.27;82.11;162471.66;5027214;28;20053;-68
2022/01/29 07:11:11;;;;;;;1999.90;999.90;;;;;;;0.33;81.98;162486.72;5023641;28;20050;-68
2022/01/29 07:13:38;;;;;;;1999.90;999.90;;;;;;;-0.11;83.64;162370.47;5027282;28;20053;-68
2022/01/29 07:16:04;;;;;;;1999.90;999.90;;;;;;;0.44;82.66;162516.78;5022458;28;20075;-68
2022/01/29 07:18:31;;;;;;;1999.90;999.90;;;;;;;0.32;83.36;162483.97;5022351;28;20061;-68
2022/01/29 07:20:57;;;;;;;1999.90;999.90;;;;;;;0.50;82.75;162531.81;5013145;28;20046;-68
2022/01/29 07:23:24;;;;;;;1999.90;999.90;;;;;;;0.66;82.53;162575.59;5015182;28;20057;-68
2022/01/29 07:25:50;;;;;;;1999.90;999.90;;;;;;;0.65;82.45;162572.84;5020274;28;20340;-68
2022/01/29 07:28:17;;;;;;;1999.90;999.90;;;;;;;0.94;81.87;162649.47;5018520;28;20049;-68
2022/01/29 07:30:43;;;;;;;1999.90;999.90;;;;;;;0.46;83.65;162520.88;5015896;28;20045;-68
2022/01/29 07:33:10;;;;;;;1999.90;999.90;;;;;;;0.11;84.73;162427.91;5021659;28;20439;-68
2022/01/29 07:35:36;;;;;;;1999.90;999.90;;;;;;;0.30;85.22;162479.88;5024940;28;20046;-68
2022/01/29 07:38:03;;;;;;;1999.90;999.90;;;;;;;0.53;84.58;162540.03;5019206;28;20057;-68
2022/01/29 07:40:29;;;;;;;1999.90;999.90;;;;;;;0.86;85.03;162627.56;5021041;28;20045;-68
2022/01/29 07:42:56;;;;;;;1999.90;999.90;;;;;;;0.98;83.94;162660.44;5024794;28;20061;-68
2022/01/29 07:45:23;;;;;;;1999.90;999.90;;;;;;;0.69;85.30;162583.78;5026705;28;20079;-68
2022/01/29 07:47:49;;;;;;;1999.90;999.90;;;;;;;0.94;85.34;162649.47;5022856;28;20053;-68
2022/01/29 07:50:16;;;;;;;1999.90;999.90;;;;;;;1.29;84.97;162742.50;5015266;28;20042;-68
2022/01/29 07:52:42;;;;;;;1999.90;999.90;;;;;;;1.18;84.86;162713.78;5017394;28;20100;-68
2022/01/29 07:55:09;;;;;;;1999.90;999.90;;;;;;;0.89;85.41;162635.78;5021019;28;20423;-68
2022/01/29 07:57:36;;;;;;;1999.90;999.90;;;;;;;1.33;85.02;162752.09;5017238;28;20099;-68
2022/01/29 08:00:04;;;;;;;1999.90;999.90;;;;;;;1.29;85.06;162742.50;5026816;28;20128;-68
2022/01/29 08:02:30;;;;;;;1999.90;999.90;;;;;;;1.17;85.27;162711.03;5016228;28;20046;-68
2022/01/29 08:04:57;;;;;;;1999.90;999.90;;;;;;;1.03;85.50;162674.09;5017040;28;20324;-69
2022/01/29 08:07:24;;;;;;;1999.90;999.90;;;;;;;1.21;86.41;162720.63;5018340;28;20053;-68
2022/01/29 08:09:50;;;;;;;1999.90;999.90;;;;;;;1.45;85.51;162784.94;5015163;28;20081;-68
2022/01/29 08:12:17;;;;;;;1999.90;999.90;;;;;;;1.35;85.75;162757.56;5027802;28;20057;-68
2022/01/29 08:14:43;;;;;;;1999.90;999.90;;;;;;;1.34;85.90;162754.81;5025495;28;20524;-68
2022/01/29 08:17:10;;;;;;;1999.90;999.90;;;;;;;1.49;86.89;162794.50;5018703;28;20512;-68
2022/01/29 08:19:36;;;;;;;1999.90;999.90;;;;;;;1.45;85.77;162783.59;5019682;28;20045;-68
2022/01/29 08:22:05;;;;;;;1999.90;999.90;;;;;;;1.86;85.17;162894.47;5027180;28;20144;-68
2022/01/29 08:24:32;;;;;;;1999.90;999.90;;;;;;;1.62;85.64;162830.06;5022118;28;20112;-68
2022/01/29 08:26:58;;;;;;;1999.90;999.90;;;;;;;1.79;86.01;162873.88;5022796;28;20474;-69
2022/01/29 08:29:25;;;;;;;1999.90;999.90;;;;;;;1.72;86.23;162856.09;5025840;28;20056;-68
2022/01/29 08:31:51;;;;;;;1999.90;999.90;;;;;;;1.66;86.01;162841.03;5013285;28;20061;-67
2022/01/29 08:34:18;;;;;;;1999.90;999.90;;;;;;;1.83;86.11;162884.84;5018596;28;20371;-67
2022/01/29 08:36:44;;;;;;;1999.90;999.90;;;;;;;1.18;87.69;162713.78;5017045;28;20095;-67
2022/01/29 08:39:11;;;;;;;1999.90;999.90;;;;;;;1.25;88.59;162731.59;5014755;28;20076;-67
2022/01/29 08:41:37;;;;;;;1999.90;999.90;;;;;;;1.74;87.16;162862.97;5015904;28;20353;-67
2022/01/29 08:44:04;;;;;;;1999.90;999.90;;;;;;;1.73;87.71;162860.22;5019805;28;20046;-67
2022/01/29 08:46:31;;;;;;;1999.90;999.90;;;;;;;1.78;87.67;162872.53;5021824;28;20069;-67
2022/01/29 08:48:57;;;;;;;1999.90;999.90;;;;;;;1.65;88.74;162838.28;5016326;28;20421;-66
2022/01/29 08:51:24;;;;;;;1999.90;999.90;;;;;;;2.09;87.93;162956.03;5021345;28;20481;-66
2022/01/29 08:53:50;;;;;;;1999.90;999.90;;;;;;;1.98;88.50;162924.53;5024552;28;20481;-67
2022/01/29 08:56:17;;;;;;;1999.90;999.90;;;;;;;1.78;89.65;162872.53;5019313;28;20115;-67
2022/01/29 08:58:44;;;;;;;1999.90;999.90;;;;;;;1.53;91.34;162805.44;5014553;28;20054;-67
2022/01/29 09:01:11;;;;;;;1999.90;999.90;;;;;;;1.65;90.81;162836.94;5013610;28;20057;-68
2022/01/29 09:03:39;;;;;;;1999.90;999.90;;;;;;;1.62;91.78;162828.72;5022168;28;20057;-67
2022/01/29 09:06:06;;;;;;;1999.90;999.90;;;;;;;1.70;91.56;162852.00;5022710;28;20052;-67
2022/01/29 09:08:33;;;;;;;1999.90;999.90;;;;;;;1.48;92.63;162791.78;5022228;28;20054;-67
2022/01/29 09:11:00;;;;;;;1999.90;999.90;;;;;;;1.87;92.24;162895.81;5023933;28;20056;-67
2022/01/29 09:13:27;;;;;;;1999.90;999.90;;;;;;;1.64;93.30;162834.19;5020591;28;20104;-66
2022/01/29 09:15:54;;;;;;;1999.90;999.90;;;;;;;1.44;94.06;162780.81;5015341;28;20054;-67
2022/01/29 09:18:21;;;;;;;1999.90;999.90;;;;;;;1.40;94.66;162771.25;5019416;28;20158;-67
2022/01/29 09:20:48;;;;;;;1999.90;999.90;;;;;;;1.39;94.76;162768.50;5022629;28;20049;-66
2022/01/29 09:23:15;;;;;;;1999.90;999.90;;;;;;;1.81;94.20;162879.38;5018871;28;20509;-68
2022/01/29 09:25:42;;;;;;;1999.90;999.90;;;;;;;1.74;94.38;162861.56;5016284;28;20071;-67
2022/01/29 09:28:12;;;;;;;1999.90;999.90;;;;;;;1.67;95.11;162842.44;5013688;28;20058;-67
2022/01/29 09:30:39;;;;;;;1999.90;999.90;;;;;;;2.02;94.05;162936.84;5027844;28;20045;-67
2022/01/29 09:33:06;;;;;;;1999.90;999.90;;;;;;;1.92;94.67;162909.47;5022872;28;20057;-67
2022/01/29 09:35:32;;;;;;;1999.90;999.90;;;;;;;1.57;95.05;162816.41;5024299;28;20113;-67
2022/01/29 09:37:59;;;;;;;1999.90;999.90;;;;;;;1.62;96.95;162830.06;5020713;28;20061;-68
2022/01/29 09:40:25;;;;;;;1999.90;999.90;;;;;;;1.50;95.96;162798.59;5020041;28;20362;-67
2022/01/29 09:42:52;;;;;;;1999.90;999.90;;;;;;;1.63;95.75;162832.81;5019100;28;20049;-67
2022/01/29 09:45:21;;;;;;;1999.90;999.90;;;;;;;1.72;96.18;162857.47;5022082;28;20052;-67
2022/01/29 09:47:48;;;;;;;1999.90;999.90;;;;;;;1.75;96.73;162864.31;5025901;28;20123;-67
2022/01/29 09:50:18;;;;;;;1999.90;999.90;;;;;;;1.50;96.94;162797.25;5027608;28;20096;-67
2022/01/29 09:52:45;;;;;;;1999.90;999.90;;;;;;;1.49;98.07;162794.50;5028849;28;20056;-67
2022/01/29 09:55:12;;;;;;;1999.90;999.90;;;;;;;1.30;98.60;162745.25;5026163;28;20096;-67
2022/01/29 09:57:39;;;;;;;1999.90;999.90;;;;;;;1.38;98.26;162765.75;5019972;28;20162;-68
2022/01/29 10:00:07;;;;;;;1999.90;999.90;;;;;;;1.23;98.42;162726.06;5016171;28;20049;-68
2022/01/29 10:02:34;;;;;;;1999.90;999.90;;;;;;;1.21;99.28;162721.97;5016777;28;20524;-67
2022/01/29 10:05:00;;;;;;;1999.90;999.90;;;;;;;1.09;99.71;162689.16;5015475;28;20352;-67
2022/01/29 10:07:29;;;;;;;1999.90;999.90;;;;;;;0.92;99.78;162643.97;5030104;28;20139;-68
2022/01/29 10:09:57;;;;;;;1999.90;999.90;;;;;;;1.30;98.63;162745.25;5017664;28;20067;-67
2022/01/29 10:12:30;;;;;;;1999.90;999.90;;;;;;;1.14;99.55;162701.47;5018188;28;20442;-67
2022/01/29 10:15:06;;;;;;;1999.90;999.90;;;;;;;1.56;97.73;162813.66;5026734;28;20401;-68
2022/01/29 10:17:54;;;;;;;1999.90;999.90;;;;;;;1.33;99.01;162753.44;5023222;28;20064;-67
2022/01/29 10:20:26;;;;;;;1999.90;999.90;;;;;;;1.20;98.65;162717.88;5022432;28;20053;-68
2022/01/29 10:22:53;;;;;;;1999.90;999.90;;;;;;;1.40;98.53;162772.63;5023955;28;20428;-68
2022/01/29 10:25:32;;;;;;;1999.90;999.90;;;;;;;1.54;98.02;162808.19;5015410;28;20050;-68
2022/01/29 10:28:15;;;;;;;1999.90;999.90;;;;;;;1.47;98.11;162790.38;5025750;28;20492;-68
2022/01/29 10:30:47;;;;;;;1999.90;999.90;;;;;;;1.40;98.42;162771.25;5022639;28;20650;-68
2022/01/29 10:33:18;;;;;;;1999.90;999.90;;;;;;;1.27;98.85;162737.03;5014161;28;20046;-68
2022/01/29 10:36:06;;;;;;;1999.90;999.90;;;;;;;1.64;97.91;162835.59;5028351;28;20052;-67
2022/01/29 10:38:53;;;;;;;1999.90;999.90;;;;;;;1.72;97.05;162857.47;5015130;28;20439;-68
2022/01/29 10:41:29;;;;;;;1999.90;999.90;;;;;;;1.17;98.64;162711.03;5021278;28;20045;-68
2022/01/29 10:43:58;;;;;;;1999.90;999.90;;;;;;;1.19;100.00;162716.53;5027628;28;20046;-67
2022/01/29 10:46:30;;;;;;;1999.90;999.90;;;;;;;1.30;99.32;162743.91;5020961;28;20056;-68
2022/01/29 10:48:58;;;;;;;1999.90;999.90;;;;;;;1.26;100.00;162732.94;5020071;28;20053;-67
2022/01/29 10:51:26;;;;;;;1999.90;999.90;;;;;;;1.43;100.00;162778.06;5013860;28;20104;-68
2022/01/29 10:53:53;;;;;;;1999.90;999.90;;;;;;;1.37;100.00;162764.41;5014387;28;20050;-68
2022/01/29 10:56:21;;;;;;;1999.90;999.90;;;;;;;1.27;100.00;162737.03;5016702;28;20449;-69
2022/01/29 10:58:50;;;;;;;1999.90;999.90;;;;;;;1.43;100.00;162778.06;5013501;28;20112;-68
2022/01/29 11:01:19;;;;;;;1999.90;999.90;;;;;;;1.37;100.00;162764.41;5017412;28;20044;-68
2022/01/29 11:03:46;;;;;;;1999.90;999.90;;;;;;;1.25;100.00;162731.59;5015307;28;20057;-68
2022/01/29 11:06:16;;;;;;;1999.90;999.90;;;;;;;1.01;100.00;162668.63;5024076;28;20037;-68
2022/01/29 11:08:43;;;;;;;1999.90;999.90;;;;;;;1.41;100.00;162773.97;5021033;28;20061;-68
2022/01/29 11:11:11;;;;;;;1999.90;999.90;;;;;;;1.53;100.00;162805.44;5017756;28;20111;-68
2022/01/29 11:13:57;;;;;;;1999.90;999.90;;;;;;;1.63;100.00;162831.47;5017507;28;20248;-67
2022/01/29 11:16:24;;;;;;;1999.90;999.90;;;;;;;1.39;100.00;162768.50;5017725;28;20054;-68